createdAt,value
2022-12-27T00:01:31.464Z,3.91
2022-12-27T00:03:58.009Z,3.92
2022-12-27T00:06:25.104Z,3.92
2022-12-27T00:08:51.752Z,3.88
2022-12-27T00:11:20.398Z,3.87
2022-12-27T00:13:47.006Z,3.85
2022-12-27T00:16:15.628Z,3.82
2022-12-27T00:18:42.185Z,3.83
2022-12-27T00:21:10.121Z,3.84
2022-12-27T00:23:38.190Z,3.84
2022-12-27T00:26:06.388Z,3.76
2022-12-27T00:28:33.371Z,3.76
2022-12-27T00:30:59.973Z,3.81
2022-12-27T00:33:30.249Z,3.80
2022-12-27T00:35:58.854Z,3.84
2022-12-27T00:38:25.229Z,3.82
2022-12-27T00:40:51.578Z,3.84
2022-12-27T00:43:18.058Z,3.83
2022-12-27T00:45:44.533Z,3.88
2022-12-27T00:48:10.977Z,3.91
2022-12-27T00:50:38.959Z,3.93
2022-12-27T00:53:05.363Z,3.95
2022-12-27T00:55:31.735Z,3.97
2022-12-27T00:57:58.127Z,3.93
2022-12-27T01:00:24.542Z,3.93
2022-12-27T01:02:50.950Z,3.90
2022-12-27T01:05:17.377Z,3.89
2022-12-27T01:07:44.223Z,3.85
2022-12-27T01:10:10.613Z,3.86
2022-12-27T01:12:37.219Z,3.80
2022-12-27T01:15:05.047Z,3.84
2022-12-27T01:17:31.417Z,3.83
2022-12-27T01:19:57.783Z,3.86
2022-12-27T01:22:24.149Z,3.81
2022-12-27T01:24:50.484Z,3.82
2022-12-27T01:27:17.081Z,3.78
2022-12-27T01:29:44.082Z,3.82
2022-12-27T01:32:10.453Z,3.76
2022-12-27T01:34:37.061Z,3.77
2022-12-27T01:37:03.614Z,3.77
2022-12-27T01:39:29.993Z,3.81
2022-12-27T01:42:14.943Z,3.84
2022-12-27T01:44:43.449Z,3.88
2022-12-27T01:47:12.568Z,3.86
2022-12-27T01:49:44.299Z,3.90
2022-12-27T01:52:10.677Z,3.93
2022-12-27T01:54:37.075Z,3.95
2022-12-27T01:57:03.964Z,3.97
2022-12-27T01:59:30.396Z,3.95
2022-12-27T02:01:56.856Z,3.95
2022-12-27T02:04:24.744Z,3.92
2022-12-27T02:06:51.110Z,3.90
2022-12-27T02:09:40.822Z,3.89
2022-12-27T02:12:07.578Z,3.91
2022-12-27T02:14:34.220Z,3.85
2022-12-27T02:17:08.327Z,3.83
2022-12-27T02:19:40.837Z,3.79
2022-12-27T02:22:29.718Z,3.84
2022-12-27T02:25:11.589Z,3.85
2022-12-27T02:27:46.888Z,3.89
2022-12-27T02:30:13.421Z,3.89
2022-12-27T02:32:39.765Z,3.88
2022-12-27T02:35:17.133Z,3.90
2022-12-27T02:37:47.767Z,3.88
2022-12-27T02:40:33.935Z,3.85
2022-12-27T02:43:18.876Z,3.89
2022-12-27T02:46:09.171Z,3.82
2022-12-27T02:48:54.211Z,3.90
2022-12-27T02:52:01.691Z,3.89
2022-12-27T02:54:44.532Z,3.90
2022-12-27T02:57:16.846Z,3.90
2022-12-27T03:00:14.116Z,3.87
2022-12-27T03:03:21.404Z,3.91
2022-12-27T03:06:25.503Z,3.94
2022-12-27T03:09:39.219Z,3.95
2022-12-27T03:12:44.497Z,3.94
2022-12-27T03:15:57.337Z,3.95
2022-12-27T03:19:01.596Z,3.93
2022-12-27T03:21:53.011Z,3.93
2022-12-27T03:24:41.475Z,3.90
2022-12-27T03:27:18.306Z,3.97
2022-12-27T03:30:27.738Z,3.96
2022-12-27T03:33:15.521Z,3.96
2022-12-27T03:36:05.807Z,3.94
2022-12-27T03:38:36.440Z,3.92
2022-12-27T03:41:22.021Z,3.96
2022-12-27T03:43:48.387Z,3.97
2022-12-27T03:46:34.622Z,3.96
2022-12-27T03:49:06.809Z,4.00
2022-12-27T03:51:37.311Z,4.01
2022-12-27T03:54:32.074Z,4.04
2022-12-27T03:57:04.214Z,4.06
2022-12-27T03:59:30.580Z,4.07
2022-12-27T04:01:58.546Z,4.05
2022-12-27T04:04:24.985Z,4.06
2022-12-27T04:06:51.577Z,4.07
2022-12-27T04:09:36.502Z,4.09
2022-12-27T04:12:21.577Z,4.09
2022-12-27T04:15:06.305Z,4.12
2022-12-27T04:17:51.253Z,4.16
2022-12-27T04:20:36.122Z,4.13
2022-12-27T04:23:20.972Z,4.14
2022-12-27T04:26:05.884Z,4.17
2022-12-27T04:28:50.838Z,4.12
2022-12-27T04:31:35.978Z,4.12
2022-12-27T04:34:21.169Z,4.14
2022-12-27T04:36:47.510Z,4.15
2022-12-27T04:39:14.054Z,4.19
2022-12-27T04:41:59.006Z,4.18
2022-12-27T04:44:44.075Z,4.22
2022-12-27T04:47:31.792Z,4.20
2022-12-27T04:50:16.767Z,4.24
2022-12-27T04:53:01.852Z,4.26
2022-12-27T04:55:29.161Z,4.27
2022-12-27T04:57:55.923Z,4.31
2022-12-27T05:00:42.596Z,4.37
2022-12-27T05:03:19.847Z,4.38
2022-12-27T05:05:46.332Z,4.38
2022-12-27T05:08:31.301Z,4.38
2022-12-27T05:11:16.530Z,4.41
2022-12-27T05:14:01.276Z,4.46
2022-12-27T05:16:37.733Z,4.47
2022-12-27T05:19:05.504Z,4.55
2022-12-27T05:21:36.061Z,4.59
2022-12-27T05:24:21.114Z,4.66
2022-12-27T05:26:47.838Z,4.66
2022-12-27T05:29:14.213Z,4.72
2022-12-27T05:31:40.616Z,4.70
2022-12-27T05:34:07.063Z,4.75
2022-12-27T05:36:33.692Z,4.79
2022-12-27T05:39:00.100Z,4.81
2022-12-27T05:41:26.720Z,4.81
2022-12-27T05:43:53.075Z,4.83
2022-12-27T05:46:20.818Z,4.83
2022-12-27T05:48:47.536Z,4.84
2022-12-27T05:51:18.354Z,4.84
2022-12-27T05:53:45.024Z,4.85
2022-12-27T05:56:15.901Z,4.86
2022-12-27T05:58:42.597Z,4.92
2022-12-27T06:01:12.213Z,4.95
2022-12-27T06:03:38.690Z,4.98
2022-12-27T06:06:06.893Z,4.97
2022-12-27T06:08:34.240Z,5.01
2022-12-27T06:11:21.140Z,5.09
2022-12-27T06:13:52.021Z,5.06
2022-12-27T06:16:18.786Z,5.09
2022-12-27T06:18:45.169Z,5.12
2022-12-27T06:21:13.720Z,5.10
2022-12-27T06:23:40.964Z,5.14
2022-12-27T06:26:08.231Z,5.17
2022-12-27T06:28:34.880Z,5.16
2022-12-27T06:31:01.623Z,5.19
2022-12-27T06:33:28.326Z,5.17
2022-12-27T06:35:54.758Z,5.18
2022-12-27T06:38:21.228Z,5.20
2022-12-27T06:40:47.592Z,5.22
2022-12-27T06:43:14.170Z,5.22
2022-12-27T06:45:40.572Z,5.24
2022-12-27T06:48:07.029Z,5.24
2022-12-27T06:50:33.355Z,5.26
2022-12-27T06:52:59.711Z,5.25
2022-12-27T06:55:26.293Z,5.23
2022-12-27T06:57:54.850Z,5.14
2022-12-27T07:00:21.539Z,5.11
2022-12-27T07:02:48.289Z,5.04
2022-12-27T07:05:14.847Z,5.02
2022-12-27T07:07:41.216Z,5.05
2022-12-27T07:10:07.997Z,5.00
2022-12-27T07:12:36.775Z,5.02
2022-12-27T07:15:07.712Z,5.06
2022-12-27T07:17:35.665Z,5.05
2022-12-27T07:20:06.183Z,5.06
2022-12-27T07:22:32.776Z,5.06
2022-12-27T07:24:59.278Z,5.08
2022-12-27T07:27:25.740Z,5.11
2022-12-27T07:29:52.161Z,5.10
2022-12-27T07:32:18.542Z,5.11
2022-12-27T07:34:44.907Z,5.12
2022-12-27T07:37:11.275Z,5.14
2022-12-27T07:39:37.624Z,5.11
2022-12-27T07:42:08.180Z,5.15
2022-12-27T07:44:35.099Z,5.15
2022-12-27T07:47:01.678Z,5.16
2022-12-27T07:49:28.341Z,5.21
2022-12-27T07:51:54.714Z,5.19
2022-12-27T07:54:21.090Z,5.17
2022-12-27T07:56:47.471Z,5.23
2022-12-27T07:59:14.079Z,5.23
2022-12-27T08:01:59.318Z,5.27
2022-12-27T08:04:25.756Z,5.24
2022-12-27T08:06:52.129Z,5.23
2022-12-27T08:09:21.937Z,5.24
2022-12-27T08:11:48.524Z,5.24
2022-12-27T08:14:14.878Z,5.25
2022-12-27T08:16:41.264Z,5.26
2022-12-27T08:19:08.779Z,5.24
2022-12-27T08:21:35.278Z,5.26
2022-12-27T08:24:01.639Z,5.24
2022-12-27T08:26:27.992Z,5.24
2022-12-27T08:28:54.383Z,5.29
2022-12-27T08:31:20.823Z,5.25
2022-12-27T08:33:47.224Z,5.28
2022-12-27T08:36:54.260Z,5.31
2022-12-27T08:39:00.215Z,5.29
2022-12-27T08:41:26.621Z,5.32
2022-12-27T08:43:52.992Z,5.31
2022-12-27T08:46:19.633Z,5.30
2022-12-27T08:48:49.570Z,5.31
2022-12-27T08:51:24.772Z,5.31
2022-12-27T08:53:56.964Z,5.31
2022-12-27T08:56:23.361Z,5.33
2022-12-27T08:58:50.131Z,5.36
2022-12-27T09:01:16.615Z,5.36
2022-12-27T09:03:43.033Z,5.33
2022-12-27T09:06:14.291Z,5.37
2022-12-27T09:08:40.723Z,5.36
2022-12-27T09:11:14.988Z,5.36
2022-12-27T09:13:41.527Z,5.37
2022-12-27T09:16:13.040Z,5.42
2022-12-27T09:18:39.890Z,5.38
2022-12-27T09:21:17.210Z,5.43
2022-12-27T09:23:43.751Z,5.42
2022-12-27T09:26:17.619Z,5.44
2022-12-27T09:28:44.122Z,5.49
2022-12-27T09:31:11.118Z,5.50
2022-12-27T09:33:37.604Z,5.52
2022-12-27T09:36:08.417Z,5.49
2022-12-27T09:38:35.037Z,5.49
2022-12-27T09:41:03.763Z,5.53
2022-12-27T09:43:37.157Z,5.56
2022-12-27T09:46:03.559Z,5.57
2022-12-27T09:48:35.122Z,5.62
2022-12-27T09:51:21.891Z,5.65
2022-12-27T09:54:01.535Z,5.67
2022-12-27T09:56:47.360Z,5.66
2022-12-27T09:59:18.232Z,5.70
2022-12-27T10:01:45.361Z,5.70
2022-12-27T10:04:13.059Z,5.69
2022-12-27T10:06:48.992Z,5.74
2022-12-27T10:09:30.341Z,5.76
2022-12-27T10:12:05.888Z,5.79
2022-12-27T10:14:41.452Z,5.75
2022-12-27T10:17:26.063Z,5.79
2022-12-27T10:20:12.687Z,5.79
2022-12-27T10:23:04.275Z,5.76
2022-12-27T10:25:32.324Z,5.79
2022-12-27T10:28:00.760Z,5.81
2022-12-27T10:30:27.478Z,5.79
2022-12-27T10:32:54.104Z,5.84
2022-12-27T10:35:20.704Z,5.88
2022-12-27T10:37:47.395Z,5.98
2022-12-27T10:40:22.577Z,6.07
2022-12-27T10:43:00.183Z,6.09
2022-12-27T10:45:39.539Z,6.10
2022-12-27T10:48:23.421Z,6.07
2022-12-27T10:50:55.781Z,6.13
2022-12-27T10:53:52.303Z,6.11
2022-12-27T10:56:35.611Z,6.09
2022-12-27T10:59:18.385Z,6.12
2022-12-27T11:01:46.199Z,6.11
2022-12-27T11:04:21.736Z,6.15
2022-12-27T11:07:10.660Z,6.18
2022-12-27T11:09:38.010Z,6.25
2022-12-27T11:12:36.070Z,6.24
2022-12-27T11:15:11.728Z,6.25
2022-12-27T11:17:40.832Z,6.23
2022-12-27T11:20:32.664Z,6.22
2022-12-27T11:23:05.290Z,6.16
2022-12-27T11:25:31.941Z,6.17
2022-12-27T11:28:04.551Z,6.12
2022-12-27T11:30:32.949Z,6.07
2022-12-27T11:33:06.590Z,5.91
2022-12-27T11:35:34.269Z,5.64
2022-12-27T11:38:00.622Z,5.44
2022-12-27T11:40:30.519Z,5.30
2022-12-27T11:43:03.385Z,5.24
2022-12-27T11:45:44.373Z,5.10
2022-12-27T11:48:37.292Z,5.08
2022-12-27T11:51:48.260Z,4.90
2022-12-27T11:54:52.724Z,4.90
2022-12-27T11:57:21.885Z,4.82
2022-12-27T12:00:06.072Z,4.79
2022-12-27T12:02:48.931Z,4.78
2022-12-27T12:05:56.327Z,4.78
2022-12-27T12:09:00.010Z,4.90
2022-12-27T12:11:35.675Z,4.95
2022-12-27T12:14:11.592Z,4.95
2022-12-27T12:16:56.308Z,4.96
2022-12-27T12:19:55.196Z,5.11
2022-12-27T12:22:45.765Z,5.17
2022-12-27T12:25:41.940Z,5.18
2022-12-27T12:28:59.331Z,5.22
2022-12-27T12:31:29.221Z,5.33
2022-12-27T12:34:19.883Z,5.46
2022-12-27T12:36:53.092Z,5.51
2022-12-27T12:39:47.758Z,5.60
2022-12-27T12:42:37.321Z,5.72
2022-12-27T12:45:06.839Z,5.82
2022-12-27T12:47:39.240Z,5.87
2022-12-27T12:50:13.766Z,5.85
2022-12-27T12:52:47.514Z,5.89
2022-12-27T12:55:23.054Z,5.92
2022-12-27T12:58:14.370Z,5.92
2022-12-27T13:00:43.229Z,5.94
2022-12-27T13:03:27.799Z,5.93
2022-12-27T13:06:00.090Z,5.99
2022-12-27T13:08:34.086Z,5.97
2022-12-27T13:11:06.678Z,5.96
2022-12-27T13:13:48.265Z,5.98
2022-12-27T13:16:18.931Z,6.00
2022-12-27T13:19:16.213Z,6.03
2022-12-27T13:22:01.333Z,6.01
2022-12-27T13:24:57.083Z,5.97
2022-12-27T13:27:44.836Z,5.98
2022-12-27T13:30:21.371Z,5.95
2022-12-27T13:33:03.435Z,5.93
2022-12-27T13:35:54.634Z,5.96
2022-12-27T13:38:35.049Z,5.95
2022-12-27T13:41:24.974Z,5.94
2022-12-27T13:44:00.461Z,5.93
2022-12-27T13:46:57.422Z,5.91
2022-12-27T13:50:01.404Z,5.86
2022-12-27T13:52:52.243Z,5.86
2022-12-27T13:55:54.728Z,5.90
2022-12-27T13:58:33.356Z,5.89
2022-12-27T14:01:24.162Z,5.91
2022-12-27T14:04:05.531Z,5.91
2022-12-27T14:07:26.407Z,5.90
2022-12-27T14:10:20.695Z,5.90
2022-12-27T14:12:57.167Z,5.90
2022-12-27T14:15:46.960Z,5.93
2022-12-27T14:18:22.296Z,5.93
2022-12-27T14:21:26.442Z,5.93
2022-12-27T14:24:26.678Z,5.93
2022-12-27T14:27:06.529Z,5.91
2022-12-27T14:29:54.000Z,5.89
2022-12-27T14:32:32.517Z,5.84
2022-12-27T14:35:38.077Z,5.80
2022-12-27T14:38:18.850Z,5.78
2022-12-27T14:40:56.855Z,5.76
2022-12-27T14:43:42.074Z,5.79
2022-12-27T14:46:30.422Z,5.70
2022-12-27T14:49:15.552Z,5.72
2022-12-27T14:52:04.431Z,5.68
2022-12-27T14:54:43.751Z,5.62
2022-12-27T14:57:37.569Z,5.56
2022-12-27T15:00:25.454Z,5.54
2022-12-27T15:03:08.432Z,5.44
2022-12-27T15:05:53.269Z,5.43
2022-12-27T15:08:28.687Z,5.34
2022-12-27T15:11:32.778Z,5.30
2022-12-27T15:14:26.910Z,5.27
2022-12-27T15:17:02.493Z,5.29
2022-12-27T15:19:40.441Z,5.25
2022-12-27T15:22:48.444Z,5.22
2022-12-27T15:25:29.947Z,5.21
2022-12-27T15:28:02.161Z,5.18
2022-12-27T15:30:35.361Z,5.19
2022-12-27T15:33:20.591Z,5.16
2022-12-27T15:35:52.328Z,5.13
2022-12-27T15:38:37.834Z,5.08
2022-12-27T15:41:07.320Z,5.06
2022-12-27T15:44:08.132Z,5.03
2022-12-27T15:47:19.711Z,4.99
2022-12-27T15:50:14.418Z,4.92
2022-12-27T15:52:53.241Z,4.91
2022-12-27T15:55:44.622Z,4.86
2022-12-27T15:58:15.007Z,4.86
2022-12-27T16:00:42.858Z,4.81
2022-12-27T16:03:29.813Z,4.76
2022-12-27T16:05:56.923Z,4.74
2022-12-27T16:08:27.727Z,4.72
2022-12-27T16:10:54.534Z,4.68
2022-12-27T16:13:41.944Z,4.57
2022-12-27T16:16:11.451Z,4.44
2022-12-27T16:18:59.875Z,4.29
2022-12-27T16:21:26.911Z,4.22
2022-12-27T16:23:55.236Z,4.16
2022-12-27T16:26:26.370Z,4.09
2022-12-27T16:28:54.274Z,3.98
2022-12-27T16:31:23.079Z,3.83
2022-12-27T16:33:49.519Z,3.71
2022-12-27T16:36:20.055Z,3.61
2022-12-27T16:38:52.394Z,3.59
2022-12-27T16:41:23.950Z,3.55
2022-12-27T16:43:59.524Z,3.49
2022-12-27T16:47:00.024Z,3.48
2022-12-27T16:49:55.398Z,3.42
2022-12-27T16:52:52.100Z,3.41
2022-12-27T16:55:43.331Z,3.46
2022-12-27T16:58:39.205Z,3.49
2022-12-27T17:01:07.071Z,3.53
2022-12-27T17:03:36.530Z,3.59
2022-12-27T17:06:33.967Z,3.65
2022-12-27T17:09:24.342Z,3.64
2022-12-27T17:11:50.716Z,3.70
2022-12-27T17:14:39.121Z,3.75
2022-12-27T17:17:17.553Z,3.82
2022-12-27T17:19:55.510Z,3.84
2022-12-27T17:22:25.190Z,3.83
2022-12-27T17:24:56.707Z,3.78
2022-12-27T17:27:32.083Z,3.74
2022-12-27T17:30:20.382Z,3.79
2022-12-27T17:33:00.072Z,3.79
2022-12-27T17:35:35.638Z,3.87
2022-12-27T17:38:20.400Z,3.84
2022-12-27T17:40:49.746Z,3.91
2022-12-27T17:43:56.172Z,3.86
2022-12-27T17:46:41.699Z,3.84
2022-12-27T17:49:08.677Z,3.76
2022-12-27T17:51:35.437Z,3.74
2022-12-27T17:54:20.499Z,3.69
2022-12-27T17:57:15.651Z,3.82
2022-12-27T17:59:42.840Z,4.02
2022-12-27T18:02:19.015Z,4.15
2022-12-27T18:04:48.534Z,4.18
2022-12-27T18:07:14.915Z,4.20
2022-12-27T18:09:56.154Z,4.24
2022-12-27T18:12:29.696Z,4.33
2022-12-27T18:15:02.778Z,4.42
2022-12-27T18:17:52.011Z,4.51
2022-12-27T18:20:28.058Z,4.58
2022-12-27T18:23:00.502Z,4.60
2022-12-27T18:25:37.710Z,4.68
2022-12-27T18:28:04.148Z,4.72
2022-12-27T18:30:37.098Z,4.79
2022-12-27T18:33:03.604Z,4.87
2022-12-27T18:35:29.967Z,4.90
2022-12-27T18:37:56.362Z,4.92
2022-12-27T18:40:23.890Z,4.99
2022-12-27T18:42:51.433Z,5.03
2022-12-27T18:45:22.719Z,5.04
2022-12-27T18:47:50.960Z,5.06
2022-12-27T18:50:21.278Z,5.09
2022-12-27T18:52:52.924Z,5.10
2022-12-27T18:55:27.523Z,5.05
2022-12-27T18:58:19.867Z,5.08
2022-12-27T19:01:19.395Z,5.10
2022-12-27T19:04:13.779Z,5.10
2022-12-27T19:06:58.756Z,5.13
2022-12-27T19:09:28.211Z,5.16
2022-12-27T19:12:01.387Z,5.21
2022-12-27T19:14:36.536Z,5.26
2022-12-27T19:17:10.421Z,5.24
2022-12-27T19:19:37.492Z,5.27
2022-12-27T19:22:03.983Z,5.28
2022-12-27T19:24:33.539Z,5.29
2022-12-27T19:27:15.846Z,5.35
2022-12-27T19:29:50.627Z,5.37
2022-12-27T19:32:22.119Z,5.41
2022-12-27T19:34:52.647Z,5.46
2022-12-27T19:37:19.299Z,5.46
2022-12-27T19:39:46.291Z,5.49
2022-12-27T19:42:18.309Z,5.52
2022-12-27T19:44:44.661Z,5.54
2022-12-27T19:47:14.365Z,5.55
2022-12-27T19:49:42.666Z,5.56
2022-12-27T19:52:28.408Z,5.60
2022-12-27T19:55:01.078Z,5.62
2022-12-27T19:57:27.578Z,5.68
2022-12-27T19:59:54.995Z,5.67
2022-12-27T20:02:22.153Z,5.71
2022-12-27T20:04:48.701Z,5.69
2022-12-27T20:07:20.721Z,5.71
2022-12-27T20:09:47.261Z,5.73
2022-12-27T20:12:15.658Z,5.75
2022-12-27T20:14:42.080Z,5.77
2022-12-27T20:17:08.451Z,5.78
2022-12-27T20:19:35.059Z,5.78
2022-12-27T20:22:01.901Z,5.81
2022-12-27T20:24:29.809Z,5.81
2022-12-27T20:26:56.176Z,5.80
2022-12-27T20:29:23.236Z,5.80
2022-12-27T20:31:52.081Z,5.84
2022-12-27T20:34:18.565Z,5.84
2022-12-27T20:36:44.963Z,5.86
2022-12-27T20:39:11.315Z,5.85
2022-12-27T20:41:37.780Z,5.89
2022-12-27T20:44:04.358Z,5.90
2022-12-27T20:46:30.765Z,5.92
2022-12-27T20:48:57.302Z,5.92
2022-12-27T20:51:27.644Z,5.89
2022-12-27T20:53:58.540Z,5.91
2022-12-27T20:56:25.067Z,5.90
2022-12-27T20:58:51.515Z,5.94
2022-12-27T21:01:19.930Z,5.91
2022-12-27T21:03:46.568Z,5.91
2022-12-27T21:06:15.005Z,5.92
2022-12-27T21:08:47.747Z,5.94
2022-12-27T21:11:23.229Z,5.91
2022-12-27T21:13:49.760Z,5.92
2022-12-27T21:16:20.975Z,5.91
2022-12-27T21:18:47.922Z,5.92
2022-12-27T21:21:19.443Z,5.91
2022-12-27T21:23:46.272Z,5.91
2022-12-27T21:26:17.836Z,5.89
2022-12-27T21:28:44.355Z,5.87
2022-12-27T21:31:11.110Z,5.89
2022-12-27T21:33:37.728Z,5.91
2022-12-27T21:36:10.243Z,5.86
2022-12-27T21:38:36.803Z,5.86
2022-12-27T21:41:08.136Z,5.87
2022-12-27T21:43:34.507Z,5.83
2022-12-27T21:46:08.164Z,5.83
2022-12-27T21:48:35.043Z,5.81
2022-12-27T21:51:08.982Z,5.82
2022-12-27T21:53:35.460Z,5.80
2022-12-27T21:56:01.999Z,5.76
2022-12-27T21:58:32.800Z,5.79
2022-12-27T22:01:06.533Z,5.77
2022-12-27T22:03:35.932Z,5.76
2022-12-27T22:06:17.911Z,5.71
2022-12-27T22:08:45.795Z,5.70
2022-12-27T22:11:12.353Z,5.67
2022-12-27T22:13:39.076Z,5.69
2022-12-27T22:16:06.800Z,5.64
2022-12-27T22:18:36.941Z,5.58
2022-12-27T22:21:06.435Z,5.57
2022-12-27T22:23:33.838Z,5.58
2022-12-27T22:26:00.198Z,5.57
2022-12-27T22:28:26.695Z,5.56
2022-12-27T22:30:53.164Z,5.51
2022-12-27T22:33:19.554Z,5.52
2022-12-27T22:35:46.117Z,5.56
2022-12-27T22:38:12.495Z,5.56
2022-12-27T22:40:46.144Z,5.54
2022-12-27T22:43:13.251Z,5.53
2022-12-27T22:45:42.801Z,5.50
2022-12-27T22:48:09.522Z,5.47
2022-12-27T22:50:37.979Z,5.47
2022-12-27T22:53:04.535Z,5.42
2022-12-27T22:55:30.937Z,5.36
2022-12-27T22:57:57.332Z,5.37
2022-12-27T23:00:23.729Z,5.36
2022-12-27T23:02:50.110Z,5.29
2022-12-27T23:05:16.765Z,5.30
2022-12-27T23:08:03.330Z,5.27
2022-12-27T23:10:29.545Z,5.26
2022-12-27T23:12:56.525Z,5.18
2022-12-27T23:15:22.894Z,5.19
2022-12-27T23:17:49.476Z,5.14
2022-12-27T23:20:15.839Z,5.13
2022-12-27T23:22:42.180Z,5.06
2022-12-27T23:25:08.914Z,5.05
2022-12-27T23:27:35.264Z,5.05
2022-12-27T23:30:01.650Z,5.04
2022-12-27T23:32:28.014Z,5.01
2022-12-27T23:34:54.397Z,5.03
2022-12-27T23:37:20.765Z,5.01
2022-12-27T23:39:47.131Z,4.95
2022-12-27T23:42:13.494Z,4.94
2022-12-27T23:44:39.824Z,4.94
2022-12-27T23:47:06.540Z,4.97
2022-12-27T23:49:33.267Z,4.91
2022-12-27T23:51:59.646Z,4.91
2022-12-27T23:54:26.225Z,4.90
2022-12-27T23:56:52.577Z,4.91
2022-12-27T23:59:18.984Z,4.91
